Long Island Mac Arthur Airport
KISP : now visible

Airfield :











YOU CAN JOIN US ON...

 
LOGIN :

Register | Disclaimer

   EN    FR    IT 

 









Legend :    VFR   Marginal VFR   IFR   Intensive IFR   Very Intensive IFR
Visi :
Ceiling :
>= 8 km
>= 3000ft
5 to 8 km
1000 to 3000 ft
1500m to 5 km
500 to 1000 ft
800 to 1500m
200 to 500 ft
< 800m
< 200 ft
Symbols :   Thunderstorms  Fog  Heavy snow  Heavy precipitations  Wind > 20 kt







- Airport Elevation : 99 ft
- IATA code : ISP


KISP - Long Island Mac Arthur

CURRENT METAR :
  • 211056Z 30011G17KT 10SM SCT046 16/06 A2985 RMK AO2 SLP109 T01560056

EXPIRED METARs :
  • 210956Z 30009KT 10SM SCT047 SCT250 14/06 A2984 RMK AO2 SLP105 T01440061
  • 210856Z AUTO 30012KT 10SM CLR 15/06 A2982 RMK AO2 SLP097 T01500061 51017

TAF KISP
Valid from the 21 at 09:00 until the 22 at 06:00 UTC


210834Z 2109/2206 32011KT P6SM FEW250
FM211300 32013G21KT P6SM FEW040 FEW250
FM211500 30017G25KT P6SM FEW040 FEW250
FM212200 32015G20KT P6SM FEW250
FM220100 33008KT P6SM FEW250
KZBW FIR / North America



MET'MAP, your aeronautical weather chart ! - Copyright ORBIFLY December 2007 - Disclaimer

ORBIFLY MET'MAP TEAM :

Programming & Development : Alexandra Zaïnal
Concept & Development : Baudouin d'Aumeries
Co-Development & Prog : Marc-Olivier Méhu
Technical & hardware support : Manuel Goepfert

Contact : metmap@orbifly.com




SOURCES & CREDITS :

   NOAA       Earth
Advisory